Time;durP1;ratioP1;P1;durP2;ratioP2;P2;SDS_P1;SDS_P2;PMS_P1;PMS_P2;Temp;Humidity;BMP_temperature;BMP_pressure;BME280_temperature;BME280_humidity;BME280_pressure;Samples;Min_cycle;Max_cycle;Signal;HPM_P1;HPM_P2
2022/09/18 00:00:28;;;;;;;8.03;1.03;;;;;;;-145.18;100.00;46640.88;5010691;28;20034;-71
2022/09/18 00:02:53;;;;;;;9.60;1.73;;;;;;;-145.18;100.00;46640.88;5010433;28;20088;-71
2022/09/18 00:05:18;;;;;;;5.47;0.90;;;;;;;-145.18;100.00;46642.81;5010975;28;20056;-72
2022/09/18 00:07:43;;;;;;;8.10;0.90;;;;;;;-145.18;100.00;46644.78;5010602;28;20041;-72
2022/09/18 00:10:09;;;;;;;7.27;1.20;;;;;;;-145.18;100.00;46642.81;5011005;28;20033;-72
2022/09/18 00:12:34;;;;;;;9.43;0.90;;;;;;;-145.18;100.00;46642.81;5010414;28;20094;-71
2022/09/18 00:14:59;;;;;;;11.67;0.90;;;;;;;-145.18;100.00;46640.88;4992733;28;20050;-71
2022/09/18 00:17:25;;;;;;;6.33;1.33;;;;;;;-145.18;100.00;46636.94;4973728;28;20034;-71
2022/09/18 00:19:51;;;;;;;5.67;1.30;;;;;;;-145.18;100.00;46640.88;4991843;28;20147;-71
2022/09/18 00:22:17;;;;;;;9.37;1.57;;;;;;;-145.18;100.00;46642.81;4991126;28;20125;-70
2022/09/18 00:24:42;;;;;;;7.13;1.10;;;;;;;-145.18;100.00;46642.81;4973783;28;20034;-70
2022/09/18 00:27:08;;;;;;;4.60;0.80;;;;;;;-145.18;100.00;46642.81;4990981;28;20049;-71
2022/09/18 00:29:33;;;;;;;8.80;1.17;;;;;;;-145.18;100.00;46646.72;4991940;28;20066;-71
2022/09/18 00:31:58;;;;;;;10.23;1.10;;;;;;;-145.18;100.00;46642.81;4999032;28;20038;-72
2022/09/18 00:34:24;;;;;;;8.60;1.30;;;;;;;-145.18;100.00;46642.81;5011040;28;20044;-72
2022/09/18 00:36:49;;;;;;;9.37;1.57;;;;;;;-145.18;100.00;46642.81;5010490;28;20026;-71
2022/09/18 00:39:15;;;;;;;5.90;1.00;;;;;;;-145.18;100.00;46642.81;5010786;28;20030;-71
2022/09/18 00:41:42;;;;;;;9.40;1.10;;;;;;;-145.18;100.00;46640.88;5010618;28;20058;-71
2022/09/18 00:44:49;;;;;;;9.77;1.20;;;;;;;-145.18;100.00;46640.88;4993155;28;20026;-71
2022/09/18 00:47:22;;;;;;;8.15;1.20;;;;;;;-145.18;100.00;46646.72;4972208;28;20034;-71
2022/09/18 00:50:05;;;;;;;8.33;0.90;;;;;;;-145.18;100.00;46640.88;5011185;28;20045;-71
2022/09/18 00:52:49;;;;;;;6.47;1.07;;;;;;;-145.18;100.00;46640.88;5010991;28;20033;-72
2022/09/18 00:55:16;;;;;;;8.47;1.10;;;;;;;-145.18;100.00;46638.91;5010356;28;20486;-72
2022/09/18 00:57:46;;;;;;;6.93;1.00;;;;;;;-145.18;100.00;46638.91;5009614;28;20053;-72
2022/09/18 01:00:13;;;;;;;8.70;1.10;;;;;;;-145.18;100.00;46642.81;5010506;28;20029;-72
2022/09/18 01:02:41;;;;;;;7.33;1.17;;;;;;;-145.18;100.00;46636.94;4996547;28;20717;-72
2022/09/18 01:05:08;;;;;;;7.57;1.20;;;;;;;-145.18;100.00;46642.81;4973379;28;20054;-72
2022/09/18 01:08:03;;;;;;;7.20;0.90;;;;;;;-145.18;100.00;46646.72;4990015;28;20037;-72
2022/09/18 01:10:29;;;;;;;12.70;1.60;;;;;;;-145.18;100.00;46636.94;4973124;28;20042;-73
2022/09/18 01:12:59;;;;;;;8.37;1.20;;;;;;;-145.18;100.00;46644.78;4990594;28;20023;-72
2022/09/18 01:15:40;;;;;;;7.90;0.90;;;;;;;-145.18;100.00;46646.72;4990715;28;20100;-73
2022/09/18 01:18:14;;;;;;;6.57;1.03;;;;;;;-145.18;100.00;46642.81;4990322;28;20022;-72
2022/09/18 01:21:04;;;;;;;12.43;1.47;;;;;;;-145.18;100.00;46642.81;5001328;28;20093;-73
2022/09/18 01:23:54;;;;;;;7.07;1.03;;;;;;;-145.18;100.00;46642.81;5009862;28;20061;-73
2022/09/18 01:26:37;;;;;;;10.90;1.20;;;;;;;-145.18;100.00;46642.81;5010373;28;20104;-73
2022/09/18 01:29:15;;;;;;;5.90;0.80;;;;;;;-145.18;100.00;46642.81;5010349;28;20038;-72
2022/09/18 01:31:49;;;;;;;6.90;0.90;;;;;;;-145.18;100.00;46644.78;5009836;28;20041;-72
2022/09/18 01:34:45;;;;;;;7.10;0.90;;;;;;;-145.18;100.00;46642.81;5010470;28;20045;-72
2022/09/18 01:37:20;;;;;;;10.45;1.55;;;;;;;-145.18;100.00;46640.88;4981744;28;20048;-72
2022/09/18 01:39:54;;;;;;;7.97;1.30;;;;;;;-145.18;100.00;46638.91;5010338;28;20334;-72
2022/09/18 01:42:24;;;;;;;6.60;1.20;;;;;;;-145.18;100.00;46644.78;5010049;28;20038;-72
2022/09/18 01:44:53;;;;;;;11.27;1.83;;;;;;;-145.18;100.00;46640.88;5010372;28;20495;-72
2022/09/18 01:47:21;;;;;;;14.93;2.33;;;;;;;-145.18;100.00;46642.81;5010292;28;20026;-72
2022/09/18 01:49:48;;;;;;;12.27;1.30;;;;;;;-145.18;100.00;46638.91;5011234;28;20041;-73
2022/09/18 01:52:22;;;;;;;6.60;0.90;;;;;;;-145.18;100.00;46642.81;5014164;28;20271;-73
2022/09/18 01:54:50;;;;;;;5.83;0.73;;;;;;;-145.18;100.00;46642.81;5014247;28;20045;-72
2022/09/18 01:57:15;;;;;;;12.00;0.70;;;;;;;-145.18;100.00;46648.69;5013662;28;20030;-73
2022/09/18 01:59:50;;;;;;;3.23;0.60;;;;;;;-145.18;100.00;46644.78;5013612;28;20044;-72
2022/09/18 02:02:27;;;;;;;9.18;0.80;;;;;;;-145.18;100.00;46648.69;5112993;23;20065;-72
2022/09/18 02:04:57;;;;;;;8.30;0.93;;;;;;;-145.18;100.00;46652.59;5003019;28;20045;-72
2022/09/18 02:07:30;;;;;;;10.10;1.00;;;;;;;-145.18;100.00;46652.59;5024614;28;20022;-72
2022/09/18 02:09:57;;;;;;;6.60;0.73;;;;;;;-145.18;100.00;46650.63;5030567;28;20258;-72
2022/09/18 02:12:25;;;;;;;10.17;1.43;;;;;;;-145.18;100.00;46650.63;5014678;28;20038;-72
2022/09/18 02:14:54;;;;;;;7.07;0.83;;;;;;;-145.18;100.00;46652.59;5032576;28;20082;-72
2022/09/18 02:17:32;;;;;;;6.97;0.97;;;;;;;-145.18;100.00;46650.63;5032813;28;20040;-72
2022/09/18 02:20:02;;;;;;;8.67;1.37;;;;;;;-145.18;100.00;46654.53;5032373;28;20106;-72
2022/09/18 02:22:30;;;;;;;8.10;0.90;;;;;;;-145.18;100.00;46650.63;5026684;28;20490;-72
2022/09/18 02:25:00;;;;;;;9.40;1.27;;;;;;;-145.18;100.00;46644.78;5012563;28;20038;-72
2022/09/18 02:27:27;;;;;;;4.53;0.70;;;;;;;-145.18;100.00;46652.59;5012712;28;20156;-72
2022/09/18 02:29:55;;;;;;;5.87;0.63;;;;;;;-145.18;100.00;46650.63;5005820;28;20042;-72
2022/09/18 02:32:20;;;;;;;7.67;1.10;;;;;;;-145.18;100.00;46656.50;4993424;28;20078;-72
2022/09/18 02:34:46;;;;;;;7.03;0.70;;;;;;;-145.18;100.00;46652.59;5028827;28;20033;-74
2022/09/18 02:37:27;;;;;;;5.40;1.00;;;;;;;-145.18;100.00;46646.72;5032743;28;20048;-72
2022/09/18 02:39:56;;;;;;;12.63;0.97;;;;;;;-145.18;100.00;46648.69;5032454;28;20420;-71
2022/09/18 02:42:40;;;;;;;5.53;0.83;;;;;;;-145.18;100.00;46650.63;5031875;28;20022;-72
2022/09/18 02:45:27;;;;;;;5.10;0.90;;;;;;;-145.18;100.00;46654.53;5032821;28;20017;-72
2022/09/18 02:48:01;;;;;;;6.00;0.90;;;;;;;-145.18;100.00;46652.59;5032000;28;20116;-72
2022/09/18 02:50:35;;;;;;;4.40;0.50;;;;;;;-145.18;100.00;46650.63;5032978;28;20037;-73
2022/09/18 02:53:12;;;;;;;9.77;1.53;;;;;;;-145.18;100.00;46648.69;5031785;28;20116;-73
2022/09/18 02:55:50;;;;;;;12.57;1.87;;;;;;;-145.18;100.00;46652.59;5032485;28;20036;-72
2022/09/18 02:58:29;;;;;;;8.30;0.87;;;;;;;-145.18;100.00;46648.69;5026351;28;20027;-72
2022/09/18 03:00:58;;;;;;;12.47;1.23;;;;;;;-145.18;100.00;46650.63;5011942;28;20563;-73
2022/09/18 03:03:30;;;;;;;9.67;1.13;;;;;;;-145.18;100.00;46644.78;5011917;28;20049;-72
2022/09/18 03:05:56;;;;;;;8.60;1.13;;;;;;;-145.18;100.00;46644.78;5012073;28;20474;-72
2022/09/18 03:08:22;;;;;;;7.07;1.13;;;;;;;-145.18;100.00;46646.72;5012042;28;20033;-72
2022/09/18 03:10:47;;;;;;;10.50;1.63;;;;;;;-145.18;100.00;46648.69;5012464;28;20121;-72
2022/09/18 03:13:13;;;;;;;6.97;1.03;;;;;;;-145.18;100.00;46646.72;5012102;28;20117;-72
2022/09/18 03:15:39;;;;;;;9.33;1.10;;;;;;;-145.18;100.00;46652.59;5012328;28;20066;-73
2022/09/18 03:18:04;;;;;;;9.20;1.60;;;;;;;-145.18;100.00;46646.72;5011978;28;20116;-72
2022/09/18 03:20:30;;;;;;;5.80;0.90;;;;;;;-145.18;100.00;46646.72;5012201;28;20417;-73
2022/09/18 03:22:55;;;;;;;5.30;1.07;;;;;;;-145.18;100.00;46650.63;5011792;28;20108;-73
2022/09/18 03:25:20;;;;;;;6.20;1.10;;;;;;;-145.18;100.00;46646.72;5005010;28;20026;-73
2022/09/18 03:27:46;;;;;;;6.83;0.90;;;;;;;-145.18;100.00;46642.81;4991986;28;20432;-74
2022/09/18 03:30:12;;;;;;;5.27;0.87;;;;;;;-145.18;100.00;46646.72;4992257;28;20038;-74
2022/09/18 03:32:37;;;;;;;3.80;0.90;;;;;;;-145.18;100.00;46646.72;4992023;28;20066;-75
2022/09/18 03:35:03;;;;;;;9.07;1.10;;;;;;;-145.18;100.00;46644.78;4992563;28;20101;-74
2022/09/18 03:37:28;;;;;;;5.00;0.90;;;;;;;-145.18;100.00;46642.81;4992356;28;20036;-75
2022/09/18 03:39:53;;;;;;;5.77;0.93;;;;;;;-145.18;100.00;46646.72;4992091;28;20030;-74
2022/09/18 03:42:19;;;;;;;8.03;1.77;;;;;;;-145.18;100.00;46644.78;4974327;28;20073;-74
2022/09/18 03:44:44;;;;;;;11.83;1.07;;;;;;;-145.18;100.00;46640.88;4992203;28;20030;-74
2022/09/18 03:47:10;;;;;;;10.90;1.10;;;;;;;-145.18;100.00;46642.81;4991895;28;20038;-73
2022/09/18 03:49:35;;;;;;;10.23;1.13;;;;;;;-145.18;100.00;46644.78;4992151;28;20034;-72
2022/09/18 03:52:01;;;;;;;12.40;0.90;;;;;;;-145.18;100.00;46644.78;4991774;28;20042;-72
2022/09/18 03:54:26;;;;;;;6.47;1.00;;;;;;;-145.18;100.00;46642.81;4992149;28;20100;-73
2022/09/18 03:56:52;;;;;;;10.17;1.07;;;;;;;-145.18;100.00;46642.81;4991592;28;20576;-73
2022/09/18 03:59:17;;;;;;;5.70;1.40;;;;;;;-145.18;100.00;46644.78;4991844;28;20037;-73
2022/09/18 04:01:43;;;;;;;9.90;1.20;;;;;;;-145.18;100.00;46646.72;4991879;28;20049;-74
2022/09/18 04:04:08;;;;;;;10.03;1.43;;;;;;;-145.18;100.00;46642.81;4991831;28;20038;-74
2022/09/18 04:06:33;;;;;;;17.77;1.93;;;;;;;-145.18;100.00;46642.81;4992196;28;20034;-74
2022/09/18 04:08:59;;;;;;;9.07;1.10;;;;;;;-145.18;100.00;46640.88;4991267;28;20066;-73
2022/09/18 04:11:24;;;;;;;11.73;1.00;;;;;;;-145.18;100.00;46650.63;4991657;28;20121;-74
2022/09/18 04:13:50;;;;;;;8.50;1.00;;;;;;;-145.18;100.00;46644.78;4990425;28;20066;-74
2022/09/18 04:16:15;;;;;;;5.63;0.80;;;;;;;-145.18;100.00;46648.69;4991940;28;20066;-74
2022/09/18 04:18:40;;;;;;;8.40;0.80;;;;;;;-145.18;100.00;46646.72;4991459;28;20045;-74
2022/09/18 04:21:06;;;;;;;7.47;1.37;;;;;;;-145.18;100.00;46646.72;4971346;28;20037;-75
2022/09/18 04:23:31;;;;;;;7.17;0.87;;;;;;;-145.18;100.00;46652.59;5011116;28;20042;-74
2022/09/18 04:25:57;;;;;;;14.10;1.07;;;;;;;-145.18;100.00;46652.59;5011124;28;20437;-74
2022/09/18 04:28:23;;;;;;;4.33;0.77;;;;;;;-145.18;100.00;46652.59;5011086;28;20056;-75
2022/09/18 04:30:49;;;;;;;6.50;1.70;;;;;;;-145.18;100.00;46654.53;5011130;28;20502;-74
2022/09/18 04:33:14;;;;;;;7.00;0.80;;;;;;;-145.18;100.00;46648.69;5010606;28;20072;-73
2022/09/18 04:35:40;;;;;;;15.53;1.50;;;;;;;-145.18;100.00;46648.69;5010653;28;20058;-73
2022/09/18 04:38:07;;;;;;;10.63;1.57;;;;;;;-145.18;100.00;46648.69;5010929;28;20092;-72
2022/09/18 04:40:33;;;;;;;5.23;1.10;;;;;;;-145.18;100.00;46648.69;5011284;28;20088;-73
2022/09/18 04:42:59;;;;;;;6.23;0.70;;;;;;;-145.18;100.00;46652.59;5010326;28;20510;-73
2022/09/18 04:45:24;;;;;;;7.00;0.73;;;;;;;-145.18;100.00;46650.63;5010779;28;20084;-72
2022/09/18 04:47:50;;;;;;;6.77;0.60;;;;;;;-145.18;100.00;46650.63;4992759;28;20037;-72
2022/09/18 04:50:15;;;;;;;6.77;0.80;;;;;;;-145.18;100.00;46652.59;4999866;28;20062;-73
2022/09/18 04:52:40;;;;;;;6.17;1.00;;;;;;;-145.18;100.00;46650.63;4973510;28;20454;-74
2022/09/18 04:55:06;;;;;;;4.90;0.80;;;;;;;-145.18;100.00;46652.59;4973786;28;20394;-74
2022/09/18 04:57:32;;;;;;;11.90;0.80;;;;;;;-145.18;100.00;46650.63;4973360;28;20682;-74
2022/09/18 04:59:57;;;;;;;11.87;1.33;;;;;;;-145.18;100.00;46652.59;4991219;28;20038;-73
2022/09/18 05:02:23;;;;;;;9.17;1.00;;;;;;;-145.18;100.00;46650.63;4990081;28;20451;-73
2022/09/18 05:04:49;;;;;;;8.53;0.97;;;;;;;-145.18;100.00;46658.44;4992693;28;20037;-74
2022/09/18 05:07:14;;;;;;;8.27;0.90;;;;;;;-145.18;100.00;46656.50;4992150;28;20030;-74
2022/09/18 05:09:40;;;;;;;13.87;1.10;;;;;;;-145.18;100.00;46650.63;4990900;28;20038;-74
2022/09/18 05:12:06;;;;;;;5.97;0.80;;;;;;;-145.18;100.00;46650.63;4990997;28;20492;-74
2022/09/18 05:14:31;;;;;;;6.60;0.83;;;;;;;-145.18;100.00;46650.63;4993425;28;20034;-75
2022/09/18 05:16:57;;;;;;;6.33;0.90;;;;;;;-145.18;100.00;46648.69;4990553;28;20027;-75
2022/09/18 05:19:23;;;;;;;9.80;1.20;;;;;;;-145.18;100.00;46652.59;4990810;28;20057;-75
2022/09/18 05:21:49;;;;;;;7.10;0.80;;;;;;;-145.18;100.00;46650.63;4992884;28;20487;-76
2022/09/18 05:24:16;;;;;;;9.43;1.03;;;;;;;-145.18;100.00;46654.53;4991548;28;20034;-77
2022/09/18 05:26:42;;;;;;;8.83;1.20;;;;;;;-145.18;100.00;46650.63;4977716;28;20531;-76
2022/09/18 05:29:07;;;;;;;6.70;0.70;;;;;;;-145.18;100.00;46646.72;5000609;28;20053;-76
2022/09/18 05:31:32;;;;;;;8.70;0.97;;;;;;;-145.18;100.00;46646.72;5014585;28;20034;-76
2022/09/18 05:33:58;;;;;;;11.97;1.10;;;;;;;-145.18;100.00;46650.63;5014289;28;20502;-77
2022/09/18 05:36:23;;;;;;;12.67;1.63;;;;;;;-145.18;100.00;46650.63;4997098;28;20553;-78
2022/09/18 05:38:50;;;;;;;10.00;0.97;;;;;;;-145.18;100.00;46650.63;5005569;28;20472;-77
2022/09/18 05:41:15;;;;;;;9.30;1.07;;;;;;;-145.18;100.00;46652.59;4995267;28;20050;-76
2022/09/18 05:43:44;;;;;;;7.07;1.40;;;;;;;-145.18;100.00;46650.63;4994564;28;20042;-76
2022/09/18 05:46:10;;;;;;;8.53;1.20;;;;;;;-145.18;100.00;46652.59;4999345;28;20386;-77
2022/09/18 05:48:36;;;;;;;9.87;1.80;;;;;;;-145.18;100.00;46652.59;5001882;28;20044;-77
2022/09/18 05:51:01;;;;;;;5.30;0.90;;;;;;;-145.18;100.00;46654.53;4994940;28;20042;-77
2022/09/18 05:53:26;;;;;;;5.37;0.57;;;;;;;-145.18;100.00;46658.44;5013870;28;20139;-77
2022/09/18 05:55:52;;;;;;;4.13;0.70;;;;;;;-145.18;100.00;46660.41;4999432;28;20445;-77
2022/09/18 05:58:19;;;;;;;7.70;1.10;;;;;;;-145.18;100.00;46660.41;4981202;28;20431;-77
2022/09/18 06:00:45;;;;;;;5.93;0.70;;;;;;;-145.18;100.00;46660.41;4984218;28;20026;-77
2022/09/18 06:03:13;;;;;;;6.80;0.80;;;;;;;-145.18;100.00;46656.50;5013416;28;20128;-77
2022/09/18 06:05:39;;;;;;;7.40;0.87;;;;;;;-145.18;100.00;46658.44;5013583;28;20129;-79
2022/09/18 06:08:08;;;;;;;5.40;0.67;;;;;;;-145.18;100.00;46662.34;4995833;28;20061;-78
2022/09/18 06:10:38;;;;;;;5.20;0.80;;;;;;;-145.18;100.00;46656.50;5013839;28;20030;-77
2022/09/18 06:13:15;;;;;;;8.50;0.70;;;;;;;-145.18;100.00;46660.41;5012814;28;20026;-77
2022/09/18 06:15:49;;;;;;;4.17;0.73;;;;;;;-145.18;100.00;46654.53;5013720;28;20072;-77
2022/09/18 06:18:14;;;;;;;5.90;0.60;;;;;;;-145.18;100.00;46656.50;4997941;28;20030;-76
2022/09/18 06:20:41;;;;;;;7.50;1.23;;;;;;;-145.18;100.00;46660.41;4996041;28;20509;-77
2022/09/18 06:23:07;;;;;;;5.10;0.90;;;;;;;-145.18;100.00;46656.50;4997133;28;20125;-77
2022/09/18 06:25:33;;;;;;;4.87;0.60;;;;;;;-145.18;100.00;46658.44;5004573;28;20057;-78
2022/09/18 06:27:59;;;;;;;11.83;1.23;;;;;;;-145.18;100.00;46656.50;5010918;28;20030;-78
2022/09/18 06:30:29;;;;;;;6.20;0.70;;;;;;;-145.18;100.00;46658.44;5008798;28;20110;-78
2022/09/18 06:32:59;;;;;;;4.70;0.57;;;;;;;-145.18;100.00;46658.44;5013322;28;20036;-78
2022/09/18 06:35:25;;;;;;;6.07;1.03;;;;;;;-145.18;100.00;46664.31;5012549;28;20032;-78
2022/09/18 06:37:50;;;;;;;2.67;0.50;;;;;;;-145.18;100.00;46658.44;5001963;28;20042;-78
2022/09/18 06:40:15;;;;;;;7.40;0.90;;;;;;;-145.18;100.00;46664.31;4995109;28;20035;-78
2022/09/18 06:42:40;;;;;;;8.13;1.10;;;;;;;-145.18;100.00;46662.34;4980865;28;20395;-78
2022/09/18 06:45:06;;;;;;;4.83;0.83;;;;;;;-145.18;100.00;46662.34;4993008;28;20038;-79
2022/09/18 06:47:32;;;;;;;10.30;1.43;;;;;;;-145.18;100.00;46664.31;4992462;28;20034;-77
2022/09/18 06:49:57;;;;;;;4.97;0.80;;;;;;;-145.18;100.00;46658.44;4992413;28;20034;-76
2022/09/18 06:52:22;;;;;;;6.20;0.83;;;;;;;-145.18;100.00;46662.34;4983866;28;20502;-75
2022/09/18 06:54:48;;;;;;;8.37;0.80;;;;;;;-145.18;100.00;46658.44;4964602;28;20100;-76
2022/09/18 06:57:13;;;;;;;6.87;0.77;;;;;;;-145.18;100.00;46652.59;4978986;28;20114;-75
2022/09/18 06:59:38;;;;;;;6.97;1.37;;;;;;;-145.18;100.00;46656.50;4978889;28;20392;-75
2022/09/18 07:02:10;;;;;;;5.53;0.77;;;;;;;-145.18;100.00;46656.50;4984379;28;20056;-76
2022/09/18 07:04:35;;;;;;;4.23;0.50;;;;;;;-145.18;100.00;46660.41;4980291;28;20388;-78
2022/09/18 07:07:01;;;;;;;8.50;0.80;;;;;;;-145.18;100.00;46660.41;5011167;28;20036;-77
2022/09/18 07:09:26;;;;;;;4.77;0.60;;;;;;;-145.18;100.00;46652.59;4991044;28;20061;-77
2022/09/18 07:11:51;;;;;;;3.63;0.40;;;;;;;-145.18;100.00;46656.50;4981767;28;20045;-76
2022/09/18 07:14:17;;;;;;;7.07;0.90;;;;;;;-145.18;100.00;46656.50;4976862;28;20066;-78
2022/09/18 07:16:42;;;;;;;8.10;0.90;;;;;;;-145.18;100.00;46650.63;4992998;28;20050;-78
2022/09/18 07:19:07;;;;;;;5.13;0.87;;;;;;;-145.18;100.00;46648.69;4992146;28;20121;-77
2022/09/18 07:21:33;;;;;;;8.77;0.60;;;;;;;-145.18;100.00;46648.69;4992181;28;20030;-77
2022/09/18 07:23:58;;;;;;;7.60;1.27;;;;;;;-145.18;100.00;46652.59;4975055;28;20039;-77
2022/09/18 07:26:24;;;;;;;5.57;0.60;;;;;;;-145.18;100.00;46644.78;4999171;28;20026;-78
2022/09/18 07:28:51;;;;;;;5.43;0.87;;;;;;;-145.18;100.00;46648.69;4992447;28;20403;-79
2022/09/18 07:31:16;;;;;;;7.33;1.40;;;;;;;-145.18;100.00;46648.69;4996246;28;20046;-79
2022/09/18 07:33:41;;;;;;;9.43;0.77;;;;;;;-145.18;100.00;46646.72;4990456;28;20038;-79
2022/09/18 07:36:07;;;;;;;5.83;0.90;;;;;;;-145.18;100.00;46646.72;4998981;28;20455;-79
2022/09/18 07:38:36;;;;;;;8.70;1.20;;;;;;;-145.18;100.00;46650.63;4999642;28;20038;-78
2022/09/18 07:41:02;;;;;;;4.47;0.90;;;;;;;-145.18;100.00;46648.69;4989024;28;20026;-80
2022/09/18 07:43:28;;;;;;;6.20;1.00;;;;;;;-145.18;100.00;46652.59;5003068;28;20573;-78
2022/09/18 07:45:53;;;;;;;7.50;1.00;;;;;;;-145.18;100.00;46648.69;5000579;28;20109;-79
2022/09/18 07:48:19;;;;;;;8.37;1.20;;;;;;;-145.18;100.00;46652.59;4989060;28;20060;-80
2022/09/18 07:50:45;;;;;;;4.10;0.90;;;;;;;-145.18;100.00;46648.69;4981280;28;20046;-80
2022/09/18 07:53:11;;;;;;;5.47;1.10;;;;;;;-145.18;100.00;46648.69;4984470;28;20043;-80
2022/09/18 07:55:36;;;;;;;6.17;0.97;;;;;;;-145.18;100.00;46652.59;4983960;28;20275;-80
2022/09/18 07:58:04;;;;;;;7.90;0.80;;;;;;;-145.18;100.00;46652.59;4988774;28;20038;-80
2022/09/18 08:00:33;;;;;;;7.10;1.07;;;;;;;-145.18;100.00;46654.53;4990825;28;20179;-80
2022/09/18 08:03:08;;;;;;;9.40;1.13;;;;;;;-145.18;100.00;46656.50;4989111;28;20050;-80
2022/09/18 08:05:34;;;;;;;7.07;1.00;;;;;;;-145.18;100.00;46656.50;4993290;28;20053;-80
2022/09/18 08:08:08;;;;;;;6.57;1.00;;;;;;;-145.18;100.00;46652.59;4993777;28;20037;-80
2022/09/18 08:10:35;;;;;;;21.70;2.57;;;;;;;-145.18;100.00;46656.50;4993858;28;20497;-80
2022/09/18 08:13:01;;;;;;;9.20;1.50;;;;;;;-145.18;100.00;46656.50;4994980;28;20505;-82
2022/09/18 08:15:28;;;;;;;9.93;1.43;;;;;;;-145.18;100.00;46658.44;5010759;28;20045;-81
2022/09/18 08:17:53;;;;;;;9.63;2.17;;;;;;;-145.18;100.00;46656.50;4993277;28;20037;-82
2022/09/18 08:20:19;;;;;;;11.67;1.83;;;;;;;-145.18;100.00;46660.41;4991962;28;20039;-81
2022/09/18 08:22:45;;;;;;;7.10;1.10;;;;;;;-145.18;100.00;46660.41;4984132;28;20389;-80
2022/09/18 08:25:11;;;;;;;10.37;1.27;;;;;;;-145.18;100.00;46660.41;4986195;28;20026;-81
2022/09/18 08:27:40;;;;;;;6.80;0.97;;;;;;;-145.18;100.00;46664.31;4982674;28;20045;-81
2022/09/18 08:30:07;;;;;;;10.43;1.10;;;;;;;-145.18;100.00;46672.13;4999350;28;20133;-81
2022/09/18 08:32:33;;;;;;;11.70;1.50;;;;;;;-145.18;100.00;46666.25;5006812;28;20562;-81
2022/09/18 08:35:01;;;;;;;5.90;1.40;;;;;;;-145.18;100.00;46660.41;4990501;28;20045;-81
2022/09/18 08:37:27;;;;;;;5.00;0.80;;;;;;;-145.18;100.00;46668.22;4990346;28;20045;-83
2022/09/18 08:39:53;;;;;;;5.27;1.13;;;;;;;-145.18;100.00;46668.22;4989818;28;20042;-82
2022/09/18 08:42:27;;;;;;;8.07;1.47;;;;;;;-145.18;100.00;46662.34;4992867;28;20044;-80
2022/09/18 08:44:59;;;;;;;3.23;0.80;;;;;;;-145.18;100.00;46664.31;4986455;28;20077;-77
2022/09/18 08:47:40;;;;;;;8.00;1.53;;;;;;;-145.18;100.00;46666.25;4992474;28;20037;-77
2022/09/18 08:50:40;;;;;;;7.90;0.90;;;;;;;-145.18;100.00;46656.50;4988753;28;20089;-77
2022/09/18 08:55:40;;;;;;;6.23;1.00;;;;;;;-145.18;100.00;46656.50;4963689;28;20057;-76
2022/09/18 08:58:29;;;;;;;3.80;0.53;;;;;;;-145.18;100.00;46656.50;4977515;28;20084;-76
2022/09/18 09:01:16;;;;;;;7.23;0.90;;;;;;;-145.18;100.00;46650.63;4995749;28;20191;-76
2022/09/18 09:04:00;;;;;;;2.40;0.67;;;;;;;-145.18;100.00;46654.53;4968770;28;20035;-76
2022/09/18 09:06:44;;;;;;;4.70;0.70;;;;;;;-145.18;100.00;46652.59;4970086;28;20078;-77
2022/09/18 09:09:15;;;;;;;5.77;0.70;;;;;;;-145.18;100.00;46652.59;4982389;28;20102;-79
2022/09/18 09:12:09;;;;;;;6.77;0.60;;;;;;;-145.18;100.00;46656.50;4978591;28;20137;-78
2022/09/18 09:15:02;;;;;;;6.33;0.80;;;;;;;-145.18;100.00;46652.59;4973293;28;20145;-77
2022/09/18 09:17:44;;;;;;;12.47;1.40;;;;;;;-145.18;100.00;46652.59;4978219;28;20121;-79
2022/09/18 09:20:17;;;;;;;5.87;0.83;;;;;;;-145.18;100.00;46652.59;4980933;28;20090;-79
2022/09/18 09:22:53;;;;;;;8.73;1.77;;;;;;;-145.18;100.00;46654.53;4974825;28;20031;-79
2022/09/18 09:25:30;;;;;;;2.23;0.70;;;;;;;-145.18;100.00;46654.53;4972833;28;20035;-79
2022/09/18 09:28:19;;;;;;;7.50;1.40;;;;;;;-145.18;100.00;46652.59;4973940;28;20073;-79
2022/09/18 09:30:51;;;;;;;4.13;0.80;;;;;;;-145.18;100.00;46656.50;4963433;28;20039;-80
2022/09/18 09:33:26;;;;;;;8.40;1.07;;;;;;;-145.18;100.00;46658.44;4961931;28;20121;-81
2022/09/18 09:36:00;;;;;;;;;;;;;;;-145.18;100.00;46660.41;4959423;28;20130;-81
2022/09/18 09:38:52;;;;;;;8.40;1.27;;;;;;;-145.18;100.00;46658.44;4962464;28;19990;-80
2022/09/18 09:41:27;;;;;;;6.47;0.80;;;;;;;-145.18;100.00;46660.41;4965257;28;20027;-81
2022/09/18 09:44:37;;;;;;;7.20;0.70;;;;;;;-145.18;100.00;46660.41;4960157;28;20527;-83
2022/09/18 09:47:14;;;;;;;7.33;0.77;;;;;;;-145.18;100.00;46668.22;4965622;28;20589;-82
2022/09/18 09:49:49;;;;;;;6.73;1.13;;;;;;;-145.18;100.00;46670.16;4963946;28;20574;-82
2022/09/18 09:52:24;;;;;;;2.30;0.52;;;;;;;-145.18;100.00;46670.16;4967436;28;20031;-82
2022/09/18 09:54:54;;;;;;;5.90;0.60;;;;;;;-145.18;100.00;46668.22;4969694;28;20518;-81
2022/09/18 09:57:41;;;;;;;10.50;0.80;;;;;;;-145.18;100.00;46676.03;4971946;28;20035;-81
2022/09/18 10:00:18;;;;;;;6.17;0.70;;;;;;;-145.18;100.00;46676.03;4974379;28;20555;-81
2022/09/18 10:03:34;;;;;;;3.27;0.70;;;;;;;-145.18;100.00;46679.94;4969793;28;20026;-81
2022/09/18 10:06:19;;;;;;;2.87;0.60;;;;;;;-145.18;100.00;46685.78;4937036;28;20532;-81
2022/09/18 10:09:06;;;;;;;4.83;0.87;;;;;;;-145.18;100.00;46685.78;4974097;28;20035;-81
2022/09/18 10:11:36;;;;;;;4.30;1.10;;;;;;;-145.18;100.00;46685.78;4979104;28;20414;-82
2022/09/18 10:14:12;;;;;;;5.23;0.50;;;;;;;-145.18;100.00;46683.84;4974396;28;20090;-77
2022/09/18 10:16:42;;;;;;;9.43;1.00;;;;;;;-145.18;100.00;46679.94;4974135;28;20035;-76
2022/09/18 10:19:16;;;;;;;2.33;0.50;;;;;;;-145.18;100.00;46674.06;4956551;28;20034;-75
2022/09/18 10:21:42;;;;;;;8.70;0.63;;;;;;;-145.18;100.00;46674.06;4973688;28;20022;-75
2022/09/18 10:24:21;;;;;;;2.73;0.60;;;;;;;-145.18;100.00;46670.16;4973613;28;20083;-75
2022/09/18 10:26:54;;;;;;;4.53;0.60;;;;;;;-145.18;100.00;46666.25;4973928;28;20034;-76
2022/09/18 10:29:20;;;;;;;7.67;1.20;;;;;;;-145.18;100.00;46666.25;4972499;28;20061;-77
2022/09/18 10:31:49;;;;;;;4.17;1.23;;;;;;;-145.18;100.00;46660.41;4981328;28;20514;-75
2022/09/18 10:34:32;;;;;;;7.37;1.03;;;;;;;-145.18;100.00;46666.25;4972353;28;20035;-75
2022/09/18 10:36:59;;;;;;;2.87;0.60;;;;;;;-145.18;100.00;46664.31;4968751;28;20054;-75
2022/09/18 10:39:30;;;;;;;5.87;0.97;;;;;;;-145.18;100.00;46660.41;4954411;28;20481;-76
2022/09/18 10:41:58;;;;;;;7.80;0.90;;;;;;;-145.18;100.00;46668.22;4989286;28;20110;-77
2022/09/18 10:44:28;;;;;;;7.80;1.53;;;;;;;-145.18;100.00;46666.25;4993200;28;20042;-77
2022/09/18 10:46:59;;;;;;;9.90;0.87;;;;;;;-145.18;100.00;46660.41;4993616;28;20027;-77
2022/09/18 10:49:48;;;;;;;3.90;0.70;;;;;;;-145.18;100.00;46670.16;4993524;28;20122;-79
2022/09/18 10:52:42;;;;;;;6.30;0.90;;;;;;;-145.18;100.00;46658.44;4993413;28;20490;-80
2022/09/18 10:55:12;;;;;;;4.23;1.30;;;;;;;-145.18;100.00;46664.31;4952611;28;20059;-81
2022/09/18 10:57:39;;;;;;;5.73;0.80;;;;;;;-145.18;100.00;46662.34;4955074;29;20042;-81
2022/09/18 11:00:11;;;;;;;5.50;0.90;;;;;;;-145.18;100.00;46668.22;4954588;28;20037;-81
2022/09/18 11:02:51;;;;;;;6.80;0.97;;;;;;;-145.18;100.00;46668.22;4937528;29;20042;-81
2022/09/18 11:05:19;;;;;;;7.37;1.27;;;;;;;-145.18;100.00;46662.34;4941757;28;20035;-81
2022/09/18 11:07:50;;;;;;;8.47;1.60;;;;;;;-145.18;100.00;46670.16;4968805;28;20034;-80
2022/09/18 11:10:19;;;;;;;5.83;0.87;;;;;;;-145.18;100.00;46670.16;4945248;28;20050;-81
2022/09/18 11:12:52;;;;;;;6.27;0.87;;;;;;;-145.18;100.00;46672.13;4956777;28;20034;-81
2022/09/18 11:15:21;;;;;;;3.47;0.90;;;;;;;-145.18;100.00;46662.34;4958939;28;20137;-77
2022/09/18 11:17:52;;;;;;;9.70;1.10;;;;;;;-145.18;100.00;46668.22;4953641;29;20023;-77
2022/09/18 11:20:25;;;;;;;8.17;1.03;;;;;;;-145.18;100.00;46660.41;4936381;29;20432;-77
2022/09/18 11:22:51;;;;;;;7.73;1.00;;;;;;;-145.18;100.00;46664.31;4951539;28;20032;-78
2022/09/18 11:25:19;;;;;;;10.57;1.60;;;;;;;-145.18;100.00;46662.34;4972702;28;20074;-78